Time;durP1;ratioP1;P1;durP2;ratioP2;P2;SDS_P1;SDS_P2;PMS_P1;PMS_P2;Temp;Humidity;BMP_temperature;BMP_pressure;BME280_temperature;BME280_humidity;BME280_pressure;Samples;Min_cycle;Max_cycle;Signal;HPM_P1;HPM_P2
2023/01/25 00:01:16;;;;;;;57.72;27.10;;;;;;;0.90;92.38;103284.00;7405914;19;20077;-68
2023/01/25 00:03:44;;;;;;;65.65;29.27;;;;;;;0.88;92.69;103270.97;7406967;19;20082;-67
2023/01/25 00:06:12;;;;;;;55.00;28.15;;;;;;;0.89;92.41;103277.91;7405570;19;20022;-66
2023/01/25 00:08:43;;;;;;;66.32;28.92;;;;;;;0.88;92.64;103272.66;7407107;19;20082;-67
2023/01/25 00:11:12;;;;;;;62.60;28.40;;;;;;;0.89;92.75;103277.91;7406124;19;20019;-67
2023/01/25 00:13:40;;;;;;;55.38;28.45;;;;;;;0.88;92.67;103272.66;7405517;19;20498;-67
2023/01/25 00:16:09;;;;;;;62.22;29.33;;;;;;;0.89;92.67;103261.53;7405447;19;20086;-66
2023/01/25 00:18:38;;;;;;;56.35;28.85;;;;;;;0.90;92.59;103269.38;7397663;19;20077;-67
2023/01/25 00:21:14;;;;;;;56.42;27.67;;;;;;;0.89;92.45;103261.53;7398059;19;20082;-67
2023/01/25 00:23:45;;;;;;;61.85;27.40;;;;;;;0.88;92.76;103265.78;7399012;19;20182;-67
2023/01/25 00:26:14;;;;;;;64.68;28.10;;;;;;;0.88;92.78;103247.69;7401254;19;20074;-67
2023/01/25 00:28:42;;;;;;;52.70;29.40;;;;;;;0.89;92.96;103249.50;7398701;19;20086;-68
2023/01/25 00:31:17;;;;;;;57.33;27.30;;;;;;;0.89;92.59;103235.69;7399863;19;20086;-67
2023/01/25 00:33:53;;;;;;;58.70;28.58;;;;;;;0.90;92.76;103237.47;7397948;19;20022;-71
2023/01/25 00:36:42;;;;;;;65.70;29.48;;;;;;;0.88;92.58;103237.34;7399740;19;20505;-68
2023/01/25 00:39:15;;;;;;;61.33;29.27;;;;;;;0.88;92.72;103242.53;7398029;19;20019;-67
2023/01/25 00:41:45;;;;;;;55.47;28.20;;;;;;;0.87;92.73;103242.44;7399552;19;20090;-67
2023/01/25 00:44:13;;;;;;;61.25;29.00;;;;;;;0.86;92.99;103230.31;7397855;19;20418;-68
2023/01/25 00:46:42;;;;;;;63.53;31.38;;;;;;;0.86;93.11;103227.75;7398245;19;20082;-68
2023/01/25 00:49:22;;;;;;;58.08;28.67;;;;;;;0.87;93.18;103226.94;7396870;19;20082;-68
2023/01/25 00:51:51;;;;;;;56.72;29.48;;;;;;;0.87;93.08;103212.31;7399261;19;20011;-68
2023/01/25 00:54:22;;;;;;;63.10;29.20;;;;;;;0.86;93.01;103202.78;7397821;19;20035;-68
2023/01/25 00:56:51;;;;;;;57.03;28.30;;;;;;;0.88;92.99;103201.16;7399841;19;20018;-68
2023/01/25 00:59:19;;;;;;;56.30;28.98;;;;;;;0.88;93.14;103200.28;7396716;19;20018;-67
2023/01/25 01:01:48;;;;;;;53.83;29.10;;;;;;;0.88;93.23;103184.78;7399247;19;20014;-66
2023/01/25 01:04:17;;;;;;;58.28;29.02;;;;;;;0.89;93.21;103184.00;7397500;19;20077;-68
2023/01/25 01:06:46;;;;;;;64.13;31.05;;;;;;;0.90;93.11;103176.31;7399040;19;20037;-68
2023/01/25 01:09:17;;;;;;;58.45;28.85;;;;;;;0.89;93.12;103179.69;7396904;19;20085;-68
2023/01/25 01:11:48;;;;;;;66.75;29.95;;;;;;;0.90;93.18;103178.03;7396444;19;20082;-68
2023/01/25 01:14:17;;;;;;;61.28;29.27;;;;;;;0.90;93.37;103183.19;7396709;19;20066;-67
2023/01/25 01:16:46;;;;;;;66.38;31.25;;;;;;;0.90;93.30;103185.78;7398746;19;20075;-68
2023/01/25 01:19:14;;;;;;;66.32;30.40;;;;;;;0.89;93.27;103178.81;7398572;19;20098;-68
2023/01/25 01:21:43;;;;;;;63.63;31.80;;;;;;;0.88;93.13;103171.88;7396796;19;20074;-68
2023/01/25 01:24:12;;;;;;;64.88;30.17;;;;;;;0.89;93.22;103168.47;7397667;19;20473;-68
2023/01/25 01:26:40;;;;;;;65.18;31.35;;;;;;;0.88;93.20;103164.09;7396088;19;20078;-68
2023/01/25 01:29:11;;;;;;;73.55;31.58;;;;;;;0.88;93.48;103169.28;7393607;19;20081;-68
2023/01/25 01:31:40;;;;;;;65.00;32.40;;;;;;;0.87;93.48;103160.63;7398652;19;20077;-68
2023/01/25 01:34:08;;;;;;;65.32;31.33;;;;;;;0.87;93.70;103158.03;7396924;19;20092;-68
2023/01/25 01:36:37;;;;;;;69.30;30.80;;;;;;;0.88;93.43;103154.66;7397701;19;20557;-68
2023/01/25 01:39:05;;;;;;;65.13;29.55;;;;;;;0.89;93.46;103152.97;7397982;19;20029;-68
2023/01/25 01:41:34;;;;;;;68.35;31.85;;;;;;;0.89;93.69;103145.22;7397824;19;20064;-68
2023/01/25 01:44:02;;;;;;;70.22;31.40;;;;;;;0.89;93.55;103133.16;7395834;19;20094;-68
2023/01/25 01:46:36;;;;;;;61.80;31.10;;;;;;;0.89;93.69;103142.63;7395353;19;20018;-67
2023/01/25 01:49:08;;;;;;;73.10;29.98;;;;;;;0.89;93.73;103143.50;7395350;19;20011;-67
2023/01/25 01:51:44;;;;;;;67.65;30.50;;;;;;;0.88;93.39;103144.31;7395415;19;20428;-68
2023/01/25 01:54:17;;;;;;;67.65;30.00;;;;;;;0.86;93.53;103140.78;7395935;19;20560;-67
2023/01/25 01:56:52;;;;;;;77.87;33.37;;;;;;;0.86;93.74;103151.09;7397129;19;20077;-67
2023/01/25 01:59:25;;;;;;;59.22;31.70;;;;;;;0.86;93.78;103152.78;7395354;19;20458;-68
2023/01/25 02:01:56;;;;;;;70.43;32.10;;;;;;;0.84;93.82;103144.94;7397776;19;20035;-67
2023/01/25 02:04:28;;;;;;;70.25;31.00;;;;;;;0.84;93.92;103149.25;7395504;19;20085;-69
2023/01/25 02:07:03;;;;;;;73.47;31.15;;;;;;;0.84;93.86;103154.41;7395734;19;20078;-67
2023/01/25 02:09:33;;;;;;;75.68;33.63;;;;;;;0.82;93.84;103143.97;7396154;19;20030;-66
2023/01/25 02:12:02;;;;;;;69.43;30.85;;;;;;;0.85;93.82;103156.16;7395654;19;20074;-68
2023/01/25 02:14:32;;;;;;;67.25;31.73;;;;;;;0.84;93.91;103149.25;7396180;19;20026;-68
2023/01/25 02:17:03;;;;;;;73.60;31.35;;;;;;;0.83;94.24;103150.03;7394710;19;20514;-68
2023/01/25 02:19:45;;;;;;;67.45;30.85;;;;;;;0.85;93.81;103151.00;7396461;19;20517;-67
2023/01/25 02:22:21;;;;;;;79.90;33.72;;;;;;;0.83;94.18;103150.03;7394454;19;20078;-67
2023/01/25 02:25:00;;;;;;;73.85;32.35;;;;;;;0.85;94.22;103151.00;7394444;19;20028;-68
2023/01/25 02:27:29;;;;;;;71.85;33.05;;;;;;;0.84;94.04;103152.69;7395240;19;20018;-67
2023/01/25 02:29:58;;;;;;;75.95;32.72;;;;;;;0.83;94.31;103150.91;7394142;19;20593;-67
2023/01/25 02:32:28;;;;;;;79.45;33.33;;;;;;;0.82;94.16;103151.72;7396353;19;20077;-68
2023/01/25 02:34:56;;;;;;;77.05;32.30;;;;;;;0.81;94.07;103152.53;7394546;19;20074;-68
2023/01/25 02:37:25;;;;;;;73.32;31.63;;;;;;;0.80;94.20;103149.03;7396151;19;20432;-69
2023/01/25 02:39:54;;;;;;;81.80;34.30;;;;;;;0.79;94.19;103144.66;7393965;19;20085;-68
2023/01/25 02:42:25;;;;;;;67.88;30.50;;;;;;;0.79;94.34;103147.25;7393097;19;20049;-68
2023/01/25 02:44:54;;;;;;;71.82;31.77;;;;;;;0.78;94.31;103150.66;7393864;19;20011;-68
2023/01/25 02:47:22;;;;;;;72.63;32.85;;;;;;;0.77;94.32;103146.31;7395407;19;20550;-68
2023/01/25 02:49:51;;;;;;;67.72;31.67;;;;;;;0.78;94.13;103149.75;7393771;19;20089;-68
2023/01/25 02:52:19;;;;;;;67.75;31.50;;;;;;;0.76;94.49;103148.81;7395126;19;20078;-68
2023/01/25 02:54:47;;;;;;;71.53;32.50;;;;;;;0.75;94.30;103144.44;7394031;19;20086;-68
2023/01/25 02:57:16;;;;;;;69.93;31.63;;;;;;;0.71;94.41;103133.03;7393793;19;20086;-68
2023/01/25 02:59:47;;;;;;;67.70;31.95;;;;;;;0.73;94.57;103133.09;7395613;19;20018;-67
2023/01/25 03:02:16;;;;;;;74.45;31.33;;;;;;;0.72;94.68;103127.06;7395838;19;20006;-68
2023/01/25 03:04:44;;;;;;;70.55;31.42;;;;;;;0.73;94.68;103130.53;7393365;19;20510;-68
2023/01/25 03:07:12;;;;;;;66.03;31.48;;;;;;;0.74;94.80;103121.97;7395300;19;20158;-68
2023/01/25 03:09:41;;;;;;;73.35;32.08;;;;;;;0.73;94.93;103118.47;7394043;19;20023;-68
2023/01/25 03:12:09;;;;;;;69.15;31.23;;;;;;;0.73;94.71;103113.31;7393357;19;20082;-68
2023/01/25 03:14:38;;;;;;;66.95;31.23;;;;;;;0.74;94.80;103119.38;7393420;19;20078;-68
2023/01/25 03:17:09;;;;;;;72.53;31.67;;;;;;;0.74;94.67;103112.50;7394578;19;20074;-68
2023/01/25 03:19:37;;;;;;;73.80;32.47;;;;;;;0.74;94.89;103115.09;7392782;19;20087;-68
2023/01/25 03:22:06;;;;;;;73.68;33.83;;;;;;;0.74;94.80;103109.94;7392855;19;20015;-68
2023/01/25 03:24:34;;;;;;;72.78;32.33;;;;;;;0.74;94.91;103107.34;7393083;19;20026;-70
2023/01/25 03:27:13;;;;;;;70.63;31.50;;;;;;;0.74;94.94;103097.00;7394905;19;20027;-68
2023/01/25 03:29:41;;;;;;;70.85;32.75;;;;;;;0.75;94.84;103103.97;7396144;19;20025;-68
2023/01/25 03:32:13;;;;;;;70.72;31.65;;;;;;;0.76;94.89;103107.47;7392808;19;20018;-67
2023/01/25 03:34:41;;;;;;;73.85;32.97;;;;;;;0.77;94.92;103106.63;7392586;19;20018;-68
2023/01/25 03:37:10;;;;;;;74.07;31.00;;;;;;;0.76;94.94;103095.41;7392192;19;20070;-68
2023/01/25 03:39:38;;;;;;;75.07;34.22;;;;;;;0.77;95.07;103104.03;7394093;19;20082;-68
2023/01/25 03:42:07;;;;;;;74.28;32.65;;;;;;;0.77;95.08;103102.38;7391927;19;20082;-68
2023/01/25 03:44:35;;;;;;;72.82;31.42;;;;;;;0.77;95.24;103097.19;7391882;19;20477;-68
2023/01/25 03:47:04;;;;;;;71.90;31.17;;;;;;;0.76;94.91;103098.00;7392293;19;20019;-68
2023/01/25 03:49:35;;;;;;;71.15;30.77;;;;;;;0.76;95.15;103092.81;7391646;19;20083;-67
2023/01/25 03:52:03;;;;;;;78.82;31.73;;;;;;;0.76;95.16;103090.25;7393673;19;20489;-68
2023/01/25 03:54:31;;;;;;;77.70;30.90;;;;;;;0.76;95.00;103091.94;7399187;19;20090;-67
2023/01/25 03:57:00;;;;;;;70.85;31.83;;;;;;;0.76;94.90;103091.94;7398720;19;20018;-67
2023/01/25 03:59:28;;;;;;;75.32;32.22;;;;;;;0.74;95.18;103097.00;7398627;19;20170;-68
2023/01/25 04:01:57;;;;;;;70.07;30.33;;;;;;;0.73;95.11;103087.47;7401227;19;20026;-68
2023/01/25 04:04:25;;;;;;;71.95;32.10;;;;;;;0.73;95.11;103078.84;7398147;19;20091;-68
2023/01/25 04:06:56;;;;;;;74.38;32.92;;;;;;;0.72;95.31;103083.13;7400773;19;20098;-68
2023/01/25 04:09:25;;;;;;;65.50;31.00;;;;;;;0.73;95.28;103081.41;7397708;19;20552;-69
2023/01/25 04:11:54;;;;;;;73.93;32.00;;;;;;;0.72;95.19;103080.53;7401052;19;20087;-68
2023/01/25 04:14:22;;;;;;;79.18;32.53;;;;;;;0.72;95.24;103079.63;7398362;19;20088;-68
2023/01/25 04:16:50;;;;;;;62.83;29.95;;;;;;;0.72;95.50;103080.53;7400381;19;20078;-68
2023/01/25 04:19:19;;;;;;;74.03;33.10;;;;;;;0.71;95.32;103070.09;7400690;19;20074;-68
2023/01/25 04:21:47;;;;;;;69.95;33.08;;;;;;;0.74;95.65;103072.88;7398815;19;20078;-68
2023/01/25 04:24:18;;;;;;;69.03;32.97;;;;;;;0.74;95.65;103067.72;7397525;19;20082;-68
2023/01/25 04:26:47;;;;;;;65.57;31.85;;;;;;;0.74;95.46;103073.75;7398276;19;20019;-68
2023/01/25 04:29:15;;;;;;;73.30;32.08;;;;;;;0.75;95.48;103070.38;7399198;19;20537;-68
2023/01/25 04:31:44;;;;;;;68.68;30.88;;;;;;;0.76;95.65;103053.19;7400199;19;20086;-68
2023/01/25 04:34:12;;;;;;;70.68;32.22;;;;;;;0.78;95.55;103056.72;7398013;19;20074;-67
2023/01/25 04:36:40;;;;;;;74.65;33.70;;;;;;;0.77;95.71;103053.25;7397702;19;20082;-68
2023/01/25 04:39:09;;;;;;;71.93;32.75;;;;;;;0.78;95.55;103051.56;7399885;19;20027;-67
2023/01/25 04:41:40;;;;;;;73.07;32.75;;;;;;;0.78;95.83;103042.13;7396919;19;20074;-67
2023/01/25 04:44:08;;;;;;;66.15;30.35;;;;;;;0.77;95.48;103037.75;7397911;19;20074;-68
2023/01/25 04:46:37;;;;;;;70.63;31.25;;;;;;;0.77;95.64;103035.19;7399132;19;20078;-68
2023/01/25 04:49:12;;;;;;;69.50;30.45;;;;;;;0.77;95.78;103036.84;7396864;19;20415;-68
2023/01/25 04:51:40;;;;;;;63.88;29.65;;;;;;;0.78;95.69;103041.22;7397244;19;20078;-68
2023/01/25 04:54:08;;;;;;;74.43;33.50;;;;;;;0.78;96.00;103039.53;7398011;19;20097;-67
2023/01/25 04:56:39;;;;;;;71.63;31.77;;;;;;;0.79;95.89;103032.66;7398729;19;20022;-68
2023/01/25 04:59:08;;;;;;;69.85;31.85;;;;;;;0.79;96.04;103038.72;7398961;19;20489;-67
2023/01/25 05:01:36;;;;;;;70.07;32.45;;;;;;;0.78;96.01;103031.78;7398743;19;20018;-68
2023/01/25 05:04:05;;;;;;;65.97;31.48;;;;;;;0.80;95.84;103031.88;7396208;19;20036;-68
2023/01/25 05:06:33;;;;;;;71.55;29.63;;;;;;;0.80;96.07;103018.94;7396699;19;20022;-67
2023/01/25 05:09:02;;;;;;;71.03;31.23;;;;;;;0.79;96.21;103015.47;7396651;19;20031;-68
2023/01/25 05:11:30;;;;;;;73.63;30.48;;;;;;;0.79;96.23;103023.22;7398359;19;20028;-67
2023/01/25 05:14:01;;;;;;;68.82;32.15;;;;;;;0.79;96.00;103012.88;7397446;19;20019;-67
2023/01/25 05:16:30;;;;;;;67.93;30.75;;;;;;;0.79;96.10;103012.00;7399169;19;20027;-68
2023/01/25 05:19:05;;;;;;;76.72;31.73;;;;;;;0.79;96.19;103002.53;7398483;19;20019;-68
2023/01/25 05:24:14;;;;;;;67.20;30.65;;;;;;;0.82;96.19;103004.41;7397315;19;20011;-67
2023/01/25 05:29:26;;;;;;;67.55;30.02;;;;;;;0.83;96.43;103001.00;7397642;19;20354;-68
2023/01/25 05:31:55;;;;;;;62.60;29.20;;;;;;;0.84;96.19;103001.91;7397346;19;20424;-68
2023/01/25 05:34:24;;;;;;;68.20;30.02;;;;;;;0.84;96.45;102994.16;7395787;19;20024;-68
2023/01/25 05:36:53;;;;;;;68.50;29.70;;;;;;;0.84;96.23;103000.22;7395144;19;20037;-68
2023/01/25 05:39:21;;;;;;;65.53;29.73;;;;;;;0.85;96.41;102995.91;7395391;19;20082;-68
2023/01/25 05:41:50;;;;;;;55.05;26.25;;;;;;;0.85;96.34;102996.84;7395318;19;20039;-68
2023/01/25 05:44:18;;;;;;;51.88;25.25;;;;;;;0.85;96.31;103004.59;7395451;19;20498;-68
2023/01/25 05:46:50;;;;;;;38.22;19.90;;;;;;;0.85;96.21;102996.84;7397186;19;20039;-68
2023/01/25 05:49:19;;;;;;;39.28;20.67;;;;;;;0.85;96.21;102990.75;7394976;19;20018;-69
2023/01/25 05:51:48;;;;;;;42.42;20.35;;;;;;;0.86;95.80;102989.94;7397343;19;20022;-68
2023/01/25 05:54:18;;;;;;;39.70;21.80;;;;;;;0.83;96.02;102988.09;7395962;19;20023;-71
2023/01/25 05:56:47;;;;;;;46.28;22.23;;;;;;;0.84;96.01;102991.59;7397854;19;20018;-68
2023/01/25 05:59:16;;;;;;;43.63;21.08;;;;;;;0.82;96.23;102981.13;7394849;19;20018;-67
2023/01/25 06:01:45;;;;;;;47.70;22.67;;;;;;;0.82;96.39;102983.72;7393937;19;20041;-68
2023/01/25 06:04:17;;;;;;;51.30;22.88;;;;;;;0.84;96.09;103000.22;7394870;19;20078;-67
2023/01/25 06:06:46;;;;;;;52.22;24.15;;;;;;;0.84;96.41;102995.03;7396214;19;20010;-68
2023/01/25 06:09:15;;;;;;;52.22;26.25;;;;;;;0.85;96.25;102990.75;7393978;19;20089;-68
2023/01/25 06:11:46;;;;;;;50.35;23.83;;;;;;;0.87;96.39;102986.56;7393633;19;20099;-68
2023/01/25 06:14:14;;;;;;;52.85;24.48;;;;;;;0.88;96.51;102985.78;7394269;19;20030;-68
2023/01/25 06:16:43;;;;;;;51.60;24.17;;;;;;;0.90;96.48;102979.00;7394913;19;20014;-68
2023/01/25 06:19:17;;;;;;;49.60;23.42;;;;;;;0.88;96.21;102975.44;7393123;19;20031;-68
2023/01/25 06:21:45;;;;;;;52.63;25.60;;;;;;;0.89;95.83;102972.91;7391923;19;20010;-67
2023/01/25 06:24:14;;;;;;;53.70;25.55;;;;;;;0.87;95.94;102968.47;7395213;19;20090;-69
2023/01/25 06:26:42;;;;;;;59.53;26.25;;;;;;;0.85;96.16;102970.06;7396168;19;20027;-68
2023/01/25 06:29:11;;;;;;;48.08;23.20;;;;;;;0.85;96.06;102972.66;7395494;19;20502;-68
2023/01/25 06:31:39;;;;;;;47.55;24.13;;;;;;;0.85;96.18;102976.16;7393497;19;20421;-69
2023/01/25 06:34:08;;;;;;;48.30;25.08;;;;;;;0.84;96.49;102974.38;7393690;19;20018;-68
2023/01/25 06:36:40;;;;;;;52.30;25.13;;;;;;;0.86;96.28;102977.94;7394098;19;20419;-68
2023/01/25 06:39:08;;;;;;;49.55;24.90;;;;;;;0.86;96.38;102974.44;7395338;19;20485;-68
2023/01/25 06:41:37;;;;;;;54.25;26.60;;;;;;;0.87;96.21;102976.22;7396501;19;20049;-68
2023/01/25 06:44:05;;;;;;;51.20;26.13;;;;;;;0.87;96.20;102973.66;7393534;19;20019;-68
2023/01/25 06:46:34;;;;;;;55.38;25.10;;;;;;;0.86;96.16;102975.34;7394991;19;20500;-68
2023/01/25 06:49:03;;;;;;;44.53;22.98;;;;;;;0.85;96.14;102972.66;7393460;19;20031;-68
2023/01/25 06:51:31;;;;;;;43.17;22.33;;;;;;;0.84;96.15;102973.50;7393027;19;20091;-68
2023/01/25 06:54:04;;;;;;;47.67;22.58;;;;;;;0.84;96.20;102968.31;7394284;19;20022;-68
2023/01/25 06:56:34;;;;;;;40.10;21.70;;;;;;;0.84;96.44;102971.78;7393860;19;20018;-68
2023/01/25 06:59:02;;;;;;;44.42;24.38;;;;;;;0.84;96.55;102966.63;7393264;19;20014;-68
2023/01/25 07:01:31;;;;;;;54.08;27.08;;;;;;;0.84;96.40;102958.88;7394899;19;20014;-68
2023/01/25 07:04:00;;;;;;;49.67;23.45;;;;;;;0.86;96.37;102956.34;7393154;19;20019;-68
2023/01/25 07:06:34;;;;;;;43.67;21.88;;;;;;;0.84;96.27;102950.22;7394289;19;20018;-68
2023/01/25 07:09:11;;;;;;;45.13;23.92;;;;;;;0.84;96.52;102950.22;7393288;19;20018;-68
2023/01/25 07:11:40;;;;;;;44.70;23.42;;;;;;;0.83;96.09;102941.56;7393554;19;20143;-68
2023/01/25 07:14:08;;;;;;;42.05;22.58;;;;;;;0.81;95.75;102945.78;7393188;19;20035;-68
2023/01/25 07:16:38;;;;;;;44.92;23.85;;;;;;;0.80;96.26;102939.72;7392864;19;20043;-67
2023/01/25 07:19:06;;;;;;;45.53;23.88;;;;;;;0.80;96.34;102937.13;7394754;19;20023;-68
2023/01/25 07:21:35;;;;;;;42.75;21.15;;;;;;;0.80;96.31;102938.84;7393695;19;20423;-68
2023/01/25 07:24:08;;;;;;;41.08;22.10;;;;;;;0.79;96.41;102935.34;7392720;19;20453;-68
2023/01/25 07:26:37;;;;;;;41.13;21.73;;;;;;;0.79;96.27;102929.31;7393651;19;20018;-66
2023/01/25 07:29:05;;;;;;;39.60;23.90;;;;;;;0.79;96.35;102929.31;7401795;19;20018;-67
2023/01/25 07:31:34;;;;;;;45.80;23.45;;;;;;;0.79;96.23;102937.94;7398591;19;20007;-68
2023/01/25 07:34:02;;;;;;;44.47;21.40;;;;;;;0.78;96.18;102930.09;7399553;19;20481;-67
2023/01/25 07:36:31;;;;;;;44.33;22.05;;;;;;;0.76;96.08;102929.16;7401654;19;20035;-67
2023/01/25 07:39:00;;;;;;;46.05;24.02;;;;;;;0.76;96.48;102929.16;7398044;19;20022;-67
2023/01/25 07:41:31;;;;;;;46.42;22.55;;;;;;;0.77;96.40;102926.66;7401775;19;20023;-67
2023/01/25 07:44:00;;;;;;;50.47;29.02;;;;;;;0.77;96.39;102924.06;7399701;19;20021;-67
2023/01/25 07:46:29;;;;;;;47.50;25.58;;;;;;;0.77;96.32;102923.16;7401389;19;20031;-68
2023/01/25 07:48:57;;;;;;;53.20;26.60;;;;;;;0.77;96.47;102913.72;7401201;19;20509;-68
2023/01/25 07:51:28;;;;;;;48.30;24.45;;;;;;;0.78;96.55;102914.59;7398677;19;20362;-68
2023/01/25 07:53:59;;;;;;;51.63;26.42;;;;;;;0.77;96.40;102910.22;7397544;19;20018;-68
2023/01/25 07:56:32;;;;;;;43.80;24.13;;;;;;;0.76;96.45;102906.78;7400483;19;20016;-67
2023/01/25 07:59:02;;;;;;;42.40;21.63;;;;;;;0.74;95.72;102903.19;7398551;19;20022;-68
2023/01/25 08:01:35;;;;;;;41.17;21.77;;;;;;;0.73;95.97;102909.16;7398323;19;20018;-68
2023/01/25 08:04:04;;;;;;;46.08;22.77;;;;;;;0.71;96.28;102899.56;7398663;19;20026;-68
2023/01/25 08:06:37;;;;;;;45.85;21.08;;;;;;;0.71;96.33;102904.72;7399983;19;20026;-69
2023/01/25 08:09:08;;;;;;;44.67;22.05;;;;;;;0.70;96.38;102906.44;7398107;19;20022;-67
2023/01/25 08:11:39;;;;;;;44.70;23.13;;;;;;;0.69;96.38;102899.50;7396718;19;20018;-68
2023/01/25 08:14:08;;;;;;;47.28;24.63;;;;;;;0.71;96.57;102899.56;7398218;19;20018;-67
2023/01/25 08:16:36;;;;;;;63.65;32.25;;;;;;;0.70;96.34;102895.22;7399272;19;20022;-66
2023/01/25 08:19:05;;;;;;;49.00;25.17;;;;;;;0.70;96.58;102898.69;7399587;19;20010;-67
2023/01/25 08:21:42;;;;;;;41.50;21.50;;;;;;;0.69;96.34;102894.31;7398581;19;20024;-67
2023/01/25 08:24:11;;;;;;;41.95;21.40;;;;;;;0.68;96.39;102896.84;7399229;19;20081;-67
2023/01/25 08:26:42;;;;;;;53.70;25.13;;;;;;;0.67;96.73;102889.88;7397099;19;20018;-68
2023/01/25 08:29:12;;;;;;;42.65;21.88;;;;;;;0.66;96.79;102894.16;7400290;19;20021;-70
2023/01/25 08:31:44;;;;;;;45.60;21.52;;;;;;;0.65;96.80;102887.22;7397434;19;20049;-68
2023/01/25 08:34:13;;;;;;;45.45;21.35;;;;;;;0.68;96.60;102891.66;7397923;19;20093;-67
2023/01/25 08:36:42;;;;;;;41.78;24.10;;;;;;;0.68;96.71;102889.94;7397210;19;20019;-69
2023/01/25 08:39:13;;;;;;;46.22;22.67;;;;;;;0.67;96.10;102874.38;7395041;19;20035;-69
2023/01/25 08:41:44;;;;;;;44.22;22.95;;;;;;;0.65;96.71;102877.75;7399831;19;20045;-66
2023/01/25 08:44:13;;;;;;;44.90;21.65;;;;;;;0.65;96.74;102864.84;7396147;19;20021;-67
2023/01/25 08:46:42;;;;;;;48.88;26.55;;;;;;;0.67;96.72;102867.53;7396593;19;20030;-69
2023/01/25 08:49:11;;;;;;;43.00;23.17;;;;;;;0.69;97.01;102865.03;7398357;19;20014;-69
2023/01/25 08:51:40;;;;;;;46.03;27.00;;;;;;;0.73;96.94;102866.94;7396330;19;20020;-71
2023/01/25 08:54:10;;;;;;;47.20;25.20;;;;;;;0.76;96.98;102865.44;7397238;19;20014;-68
2023/01/25 08:56:38;;;;;;;43.90;24.20;;;;;;;0.79;96.90;102867.28;7396125;19;20011;-68
2023/01/25 08:59:12;;;;;;;42.58;24.45;;;;;;;0.81;97.04;102871.72;7398593;19;20022;-70
2023/01/25 09:01:41;;;;;;;44.53;21.90;;;;;;;0.82;96.57;102867.44;7396867;19;20364;-68
2023/01/25 09:04:09;;;;;;;42.88;22.20;;;;;;;0.83;96.63;102874.38;7397226;19;20022;-68
2023/01/25 09:06:38;;;;;;;45.10;24.10;;;;;;;0.82;96.88;102862.25;7396706;19;20022;-67
2023/01/25 09:09:07;;;;;;;38.33;22.20;;;;;;;0.84;96.74;102864.94;7398748;19;20019;-67
2023/01/25 09:11:37;;;;;;;43.95;22.55;;;;;;;0.84;97.00;102865.81;7396455;19;20098;-67
2023/01/25 09:14:05;;;;;;;46.17;23.05;;;;;;;0.85;96.55;102866.69;7397042;19;20018;-67
2023/01/25 09:16:36;;;;;;;44.80;22.45;;;;;;;0.85;97.01;102872.78;7396690;19;20035;-67
2023/01/25 09:19:06;;;;;;;44.67;22.30;;;;;;;0.87;96.78;102870.25;7396059;19;20485;-67
2023/01/25 09:21:36;;;;;;;43.90;22.27;;;;;;;0.88;96.98;102872.06;7397971;19;20511;-67
2023/01/25 09:24:05;;;;;;;50.10;26.45;;;;;;;0.90;96.87;102870.44;7397720;19;20085;-67
2023/01/25 09:26:33;;;;;;;42.38;21.67;;;;;;;0.90;96.95;102860.97;7395895;19;20035;-67
2023/01/25 09:29:02;;;;;;;41.85;23.00;;;;;;;0.92;96.99;102868.81;7397899;19;20014;-67
2023/01/25 09:31:30;;;;;;;49.50;24.15;;;;;;;0.92;96.96;102861.06;7395239;19;20525;-66
2023/01/25 09:34:02;;;;;;;52.88;26.20;;;;;;;0.92;96.71;102861.06;7395399;19;20035;-67
2023/01/25 09:36:30;;;;;;;45.75;24.25;;;;;;;0.92;96.76;102859.38;7395332;19;20389;-67
2023/01/25 09:38:59;;;;;;;43.60;23.92;;;;;;;0.92;96.92;102859.38;7394650;19;20018;-67
2023/01/25 09:41:58;;;;;;;50.72;26.48;;;;;;;0.93;96.86;102861.13;7394834;19;20026;-67
2023/01/25 09:44:41;;;;;;;47.33;25.30;;;;;;;0.93;96.64;102857.66;7394764;19;20391;-67
2023/01/25 09:47:20;;;;;;;52.85;25.85;;;;;;;0.93;96.80;102840.44;7395084;19;20414;-67
2023/01/25 09:50:17;;;;;;;49.50;25.95;;;;;;;0.95;96.93;102837.97;7396196;19;20031;-67
2023/01/25 09:53:10;;;;;;;53.03;27.83;;;;;;;0.96;96.97;102839.72;7394409;19;20014;-67
2023/01/25 09:55:40;;;;;;;48.92;24.92;;;;;;;0.97;97.27;102841.50;7394466;19;20022;-67
2023/01/25 09:58:15;;;;;;;49.47;24.13;;;;;;;0.96;96.84;102831.97;7396544;19;20019;-67
2023/01/25 10:00:46;;;;;;;53.45;25.10;;;;;;;0.95;96.66;102831.09;7397616;19;20043;-67
2023/01/25 10:03:24;;;;;;;48.90;23.02;;;;;;;0.91;96.31;102816.25;7394772;19;20424;-68
2023/01/25 10:05:57;;;;;;;52.40;25.42;;;;;;;0.88;96.42;102821.22;7395747;19;20037;-68
2023/01/25 10:08:31;;;;;;;53.60;27.23;;;;;;;0.87;96.89;102814.28;7396697;19;20510;-70
2023/01/25 10:11:08;;;;;;;52.65;26.38;;;;;;;0.89;97.17;102816.97;7396261;19;20032;-68
2023/01/25 10:13:37;;;;;;;55.65;26.98;;;;;;;0.91;97.05;102821.41;7396051;19;20026;-66
2023/01/25 10:16:08;;;;;;;49.83;25.52;;;;;;;0.93;97.44;102819.78;7393995;19;20086;-68
2023/01/25 10:18:42;;;;;;;52.65;26.85;;;;;;;0.95;97.15;102814.72;7395436;19;20022;-68
2023/01/25 10:21:20;;;;;;;49.35;26.15;;;;;;;0.97;97.40;102810.47;7394095;19;20354;-73
2023/01/25 10:24:25;;;;;;;53.85;26.25;;;;;;;0.98;97.19;102812.25;7394866;19;20022;-66
2023/01/25 10:26:58;;;;;;;60.70;28.70;;;;;;;0.97;97.18;102806.22;7395576;19;20042;-67
2023/01/25 10:29:30;;;;;;;88.80;40.03;;;;;;;1.00;97.54;102808.06;7394008;19;20015;-68
2023/01/25 10:32:11;;;;;;;75.53;32.38;;;;;;;1.04;97.58;102812.56;7394710;19;20014;-68
2023/01/25 10:34:43;;;;;;;54.47;26.67;;;;;;;1.08;97.70;102799.00;7394286;19;20023;-68
2023/01/25 10:37:16;;;;;;;52.25;26.98;;;;;;;1.12;97.68;102794.88;7394398;19;20018;-68
2023/01/25 10:39:56;;;;;;;57.08;26.38;;;;;;;1.13;97.62;102789.75;7394076;19;20039;-67
2023/01/25 10:42:39;;;;;;;46.40;23.58;;;;;;;1.16;97.59;102782.97;7394948;19;20014;-67
2023/01/25 10:45:14;;;;;;;50.90;26.17;;;;;;;1.17;97.49;102787.34;7394228;19;20019;-67
2023/01/25 10:47:44;;;;;;;49.65;23.83;;;;;;;1.18;97.59;102774.50;7395300;19;20491;-67
2023/01/25 10:50:49;;;;;;;48.97;24.73;;;;;;;1.18;97.40;102764.16;7394352;19;20015;-67
2023/01/25 10:53:43;;;;;;;46.70;27.00;;;;;;;1.19;97.56;102763.34;7394797;19;20035;-67
2023/01/25 10:56:23;;;;;;;53.72;27.02;;;;;;;1.20;97.54;102761.63;7397334;19;20029;-66
2023/01/25 10:58:55;;;;;;;50.58;26.13;;;;;;;1.20;97.11;102759.03;7395349;19;20039;-66
2023/01/25 11:01:30;;;;;;;52.97;25.10;;;;;;;1.19;96.91;102753.00;7394427;19;20014;-66
2023/01/25 11:04:00;;;;;;;45.28;23.67;;;;;;;1.18;96.72;102747.75;7393064;19;20014;-66
2023/01/25 11:06:34;;;;;;;45.05;22.55;;;;;;;1.17;97.25;102741.69;7392670;19;20010;-66
2023/01/25 11:09:36;;;;;;;48.42;23.85;;;;;;;1.17;97.17;102739.09;7394745;19;20035;-66
2023/01/25 11:12:07;;;;;;;42.88;19.88;;;;;;;1.16;96.91;102732.13;7394068;19;20021;-68
2023/01/25 11:14:36;;;;;;;39.30;21.00;;;;;;;1.16;97.20;102737.31;7394060;19;20036;-70
2023/01/25 11:17:07;;;;;;;44.08;22.90;;;;;;;1.17;97.38;102730.47;7393205;19;20015;-69
2023/01/25 11:19:38;;;;;;;47.75;23.27;;;;;;;1.19;97.43;102731.41;7391509;19;20037;-70
2023/01/25 11:22:08;;;;;;;49.67;23.70;;;;;;;1.18;97.26;102720.19;7391791;19;20521;-69
2023/01/25 11:24:39;;;;;;;47.85;23.48;;;;;;;1.19;97.44;102721.97;7391640;19;20006;-69
2023/01/25 11:27:19;;;;;;;47.97;21.88;;;;;;;1.19;97.24;102716.78;7394206;19;20019;-68
2023/01/25 11:30:09;;;;;;;47.85;23.67;;;;;;;1.19;97.41;102708.13;7391972;19;20020;-70
2023/01/25 11:32:40;;;;;;;42.53;21.15;;;;;;;1.16;96.83;102714.03;7392310;19;20022;-68
2023/01/25 11:35:15;;;;;;;48.03;23.63;;;;;;;1.16;97.37;102705.41;7394364;19;20011;-68
2023/01/25 11:38:02;;;;;;;49.03;23.92;;;;;;;1.15;97.20;102694.19;7392659;19;20021;-69
2023/01/25 11:40:39;;;;;;;42.92;21.67;;;;;;;1.14;97.14;102693.28;7393901;19;20018;-68